Time,TemperatureF,DewpointF,PressureIn,WindDirection,WindDirectionDegrees,WindSpeedMPH,WindSpeedGustMPH,Humidity,HourlyPrecipIn,Conditions,Clouds,dailyrainin,SoftwareType,DateUTC
2014-01-04 00:00:00,8.7,2.7,0.00,West,270,0.0,-999.0,76,0.00,,,0.00,,2014-01-04 05:00:00,
2014-01-04 00:05:00,8.7,2.7,0.00,West,270,0.0,-999.0,76,0.00,,,0.00,,2014-01-04 05:05:00,
2014-01-04 00:10:00,8.9,2.9,0.00,West,270,0.0,-999.0,76,0.00,,,0.00,,2014-01-04 05:10:00,
2014-01-04 00:15:00,9.1,3.1,0.00,West,270,0.0,-999.0,76,0.00,,,0.00,,2014-01-04 05:15:00,
2014-01-04 00:20:00,9.1,3.1,0.00,West,270,0.0,-999.0,76,0.00,,,0.00,,2014-01-04 05:20:00,
2014-01-04 00:25:00,9.3,3.3,0.00,West,270,0.0,-999.0,76,0.00,,,0.00,,2014-01-04 05:25:00,
2014-01-04 00:30:00,9.5,3.5,0.00,West,270,0.0,-999.0,76,0.00,,,0.00,,2014-01-04 05:30:00,
2014-01-04 00:40:00,9.6,3.6,0.00,West,270,0.0,-999.0,76,0.00,,,0.00,,2014-01-04 05:40:00,
2014-01-04 00:45:00,9.6,3.9,0.00,West,270,0.0,-999.0,77,0.00,,,0.00,,2014-01-04 05:45:00,
2014-01-04 00:50:00,9.6,3.9,0.00,West,270,0.0,-999.0,77,0.00,,,0.00,,2014-01-04 05:50:00,
2014-01-04 01:00:00,10.2,4.4,0.00,West,270,0.0,-999.0,77,0.00,,,0.00,,2014-01-04 06:00:00,
2014-01-04 01:10:00,10.5,4.7,0.00,West,270,0.0,-999.0,77,0.00,,,0.00,,2014-01-04 06:10:00,
2014-01-04 01:20:00,10.5,4.7,0.00,West,270,0.0,-999.0,77,0.00,,,0.00,,2014-01-04 06:20:00,
2014-01-04 01:25:00,10.5,4.7,0.00,West,270,0.0,-999.0,77,0.00,,,0.00,,2014-01-04 06:25:00,
2014-01-04 01:30:00,10.2,4.4,0.00,West,270,0.0,-999.0,77,0.00,,,0.00,,2014-01-04 06:30:00,
2014-01-04 01:40:00,10.2,4.4,0.00,West,270,0.0,-999.0,77,0.00,,,0.00,,2014-01-04 06:40:00,
2014-01-04 01:50:00,10.0,4.2,0.00,North,0,0.0,-999.0,77,0.00,,,0.00,,2014-01-04 06:50:00,
2014-01-04 02:00:00,9.6,3.9,0.00,West,270,0.0,-999.0,77,0.00,,,0.00,,2014-01-04 07:00:00,
2014-01-04 02:10:00,9.5,3.8,0.00,West,270,0.0,-999.0,77,0.00,,,0.00,,2014-01-04 07:10:00,
2014-01-04 02:20:00,9.3,3.6,0.00,West,270,0.0,-999.0,77,0.00,,,0.00,,2014-01-04 07:20:00,
2014-01-04 02:30:00,8.9,3.2,0.00,West,270,0.0,-999.0,77,0.00,,,0.00,,2014-01-04 07:30:00,
2014-01-04 02:40:00,8.7,3.0,0.00,West,270,0.0,-999.0,77,0.00,,,0.00,,2014-01-04 07:40:00,
2014-01-04 02:50:00,8.6,2.9,0.00,West,270,0.0,-999.0,77,0.00,,,0.00,,2014-01-04 07:50:00,
2014-01-04 03:00:00,8.7,3.0,0.00,West,270,0.0,-999.0,77,0.00,,,0.00,,2014-01-04 08:00:00,
2014-01-04 03:10:00,8.6,3.2,0.00,West,270,0.0,-999.0,78,0.00,,,0.00,,2014-01-04 08:10:00,
2014-01-04 03:20:00,8.4,3.0,0.00,West,270,0.0,-999.0,78,0.00,,,0.00,,2014-01-04 08:20:00,
2014-01-04 03:30:00,8.4,3.0,0.00,West,270,0.0,-999.0,78,0.00,,,0.00,,2014-01-04 08:30:00,
2014-01-04 03:40:00,8.4,3.0,0.00,West,270,0.0,-999.0,78,0.00,,,0.00,,2014-01-04 08:40:00,
2014-01-04 03:50:00,8.4,3.0,0.00,West,270,0.0,-999.0,78,0.00,,,0.00,,2014-01-04 08:50:00,
2014-01-04 04:00:00,8.6,3.2,0.00,West,270,0.0,-999.0,78,0.00,,,0.00,,2014-01-04 09:00:00,
2014-01-04 04:10:00,8.4,3.0,0.00,West,270,0.0,-999.0,78,0.00,,,0.00,,2014-01-04 09:10:00,
2014-01-04 04:20:00,8.4,3.0,0.00,West,270,0.0,-999.0,78,0.00,,,0.00,,2014-01-04 09:20:00,
2014-01-04 04:30:00,8.4,3.0,0.00,West,270,0.0,-999.0,78,0.00,,,0.00,,2014-01-04 09:30:00,
2014-01-04 04:40:00,8.4,3.0,0.00,West,270,0.0,-999.0,78,0.00,,,0.00,,2014-01-04 09:40:00,
2014-01-04 04:50:00,8.4,3.0,0.00,West,270,0.0,-999.0,78,0.00,,,0.00,,2014-01-04 09:50:00,
2014-01-04 05:00:00,8.4,3.0,0.00,West,270,0.0,-999.0,78,0.00,,,0.00,,2014-01-04 10:00:00,
2014-01-04 05:10:00,8.2,2.8,0.00,West,270,0.0,-999.0,78,0.00,,,0.00,,2014-01-04 10:10:00,
2014-01-04 05:20:00,8.4,3.0,0.00,West,270,0.0,-999.0,78,0.00,,,0.00,,2014-01-04 10:20:00,
2014-01-04 05:30:00,8.4,3.0,0.00,West,270,0.0,-999.0,78,0.00,,,0.00,,2014-01-04 10:30:00,
2014-01-04 05:40:00,8.4,3.0,0.00,West,270,0.0,-999.0,78,0.00,,,0.00,,2014-01-04 10:40:00,
2014-01-04 05:50:00,8.4,3.0,0.00,West,270,0.0,-999.0,78,0.00,,,0.00,,2014-01-04 10:50:00,
2014-01-04 05:55:00,8.4,3.0,0.00,West,270,0.0,-999.0,78,0.00,,,0.00,,2014-01-04 10:55:00,
2014-01-04 06:00:00,8.4,3.0,0.00,West,270,0.0,-999.0,78,0.00,,,0.00,,2014-01-04 11:00:00,
2014-01-04 06:10:00,8.6,3.2,0.00,West,270,0.0,-999.0,78,0.00,,,0.00,,2014-01-04 11:10:00,
2014-01-04 06:20:00,8.9,3.5,0.00,West,270,0.0,-999.0,78,0.00,,,0.00,,2014-01-04 11:20:00,
2014-01-04 06:30:00,8.9,3.2,0.00,West,270,0.0,-999.0,77,0.00,,,0.00,,2014-01-04 11:30:00,
2014-01-04 06:40:00,8.9,3.2,0.00,West,270,0.0,-999.0,77,0.00,,,0.00,,2014-01-04 11:40:00,
2014-01-04 06:50:00,8.9,3.2,0.00,West,270,0.0,-999.0,77,0.00,,,0.00,,2014-01-04 11:50:00,
2014-01-04 07:00:00,8.9,3.2,0.00,West,270,0.0,-999.0,77,0.00,,,0.00,,2014-01-04 12:00:00,
2014-01-04 07:10:00,9.1,3.4,0.00,West,270,0.0,-999.0,77,0.00,,,0.00,,2014-01-04 12:10:00,
2014-01-04 07:20:00,9.1,3.1,0.00,West,270,0.0,-999.0,76,0.00,,,0.00,,2014-01-04 12:20:00,
2014-01-04 07:30:00,9.3,3.3,0.00,West,270,0.0,-999.0,76,0.00,,,0.00,,2014-01-04 12:30:00,
2014-01-04 07:40:00,9.3,3.3,0.00,West,270,0.0,-999.0,76,0.00,,,0.00,,2014-01-04 12:40:00,
2014-01-04 07:50:00,9.5,3.5,0.00,West,270,0.0,-999.0,76,0.00,,,0.00,,2014-01-04 12:50:00,
2014-01-04 08:00:00,9.6,3.6,0.00,West,270,0.0,-999.0,76,0.00,,,0.00,,2014-01-04 13:00:00,
2014-01-04 08:10:00,9.6,3.6,0.00,West,270,0.0,-999.0,76,0.00,,,0.00,,2014-01-04 13:10:00,
2014-01-04 08:20:00,10.0,4.0,0.00,West,270,0.0,-999.0,76,0.00,,,0.00,,2014-01-04 13:20:00,
2014-01-04 08:30:00,10.2,4.2,0.00,West,270,0.0,-999.0,76,0.00,,,0.00,,2014-01-04 13:30:00,
2014-01-04 08:40:00,10.2,4.2,0.00,West,270,0.0,-999.0,76,0.00,,,0.00,,2014-01-04 13:40:00,
2014-01-04 08:50:00,10.7,4.6,0.00,West,270,0.0,-999.0,76,0.00,,,0.00,,2014-01-04 13:50:00,
2014-01-04 09:00:00,11.8,5.4,0.00,West,270,0.0,-999.0,75,0.00,,,0.00,,2014-01-04 14:00:00,
2014-01-04 09:10:00,12.7,6.3,0.00,West,270,0.0,-999.0,75,0.00,,,0.00,,2014-01-04 14:10:00,
2014-01-04 09:20:00,13.8,7.1,0.00,West,270,0.0,-999.0,74,0.00,,,0.00,,2014-01-04 14:20:00,
2014-01-04 09:30:00,14.9,7.8,0.00,WSW,248,0.0,-999.0,73,0.00,,,0.00,,2014-01-04 14:30:00,
2014-01-04 09:40:00,16.3,8.6,0.00,WSW,248,0.0,-999.0,71,0.00,,,0.00,,2014-01-04 14:40:00,
2014-01-04 09:50:00,17.9,9.8,0.00,South,180,0.0,-999.0,70,0.00,,,0.00,,2014-01-04 14:50:00,
2014-01-04 10:00:00,19.5,10.7,0.00,SW,225,0.0,-999.0,68,0.00,,,0.00,,2014-01-04 15:00:00,
2014-01-04 10:10:00,20.6,10.7,0.00,SSW,203,0.0,-999.0,65,0.00,,,0.00,,2014-01-04 15:10:00,
2014-01-04 10:20:00,21.3,11.0,0.00,South,180,0.0,-999.0,64,0.00,,,0.00,,2014-01-04 15:20:00,
2014-01-04 10:30:00,21.9,11.6,0.00,WSW,248,0.0,-999.0,64,0.00,,,0.00,,2014-01-04 15:30:00,
2014-01-04 10:40:00,22.8,11.7,0.00,SE,135,0.0,-999.0,62,0.00,,,0.00,,2014-01-04 15:40:00,
2014-01-04 10:50:00,23.7,12.2,0.00,SSE,158,0.0,-999.0,61,0.00,,,0.00,,2014-01-04 15:50:00,
2014-01-04 11:00:00,24.4,12.5,0.00,South,180,0.0,-999.0,60,0.00,,,0.00,,2014-01-04 16:00:00,
2014-01-04 11:10:00,25.1,13.2,0.00,SSW,203,0.0,-999.0,60,0.00,,,0.00,,2014-01-04 16:10:00,
2014-01-04 11:20:00,26.2,13.8,0.00,SW,225,0.0,-999.0,59,0.00,,,0.00,,2014-01-04 16:20:00,
2014-01-04 11:30:00,27.1,14.3,0.00,SSW,203,0.0,-999.0,58,0.00,,,0.00,,2014-01-04 16:30:00,
2014-01-04 11:40:00,27.6,14.4,0.00,SSW,203,0.0,-999.0,57,0.00,,,0.00,,2014-01-04 16:40:00,
2014-01-04 11:50:00,29.1,15.4,0.00,SSE,158,0.0,-999.0,56,0.00,,,0.00,,2014-01-04 16:50:00,
2014-01-04 12:00:00,30.0,16.2,0.00,SSW,203,0.0,-999.0,56,0.00,,,0.00,,2014-01-04 17:00:00,
2014-01-04 12:10:00,31.1,16.8,0.00,SSW,203,7.0,-999.0,55,0.00,,,0.00,,2014-01-04 17:10:00,
2014-01-04 12:20:00,31.8,17.1,0.00,South,180,0.0,-999.0,54,0.00,,,0.00,,2014-01-04 17:20:00,
2014-01-04 12:30:00,32.5,17.3,0.00,SW,225,7.0,-999.0,53,0.00,,,0.00,,2014-01-04 17:30:00,
2014-01-04 12:40:00,33.4,17.2,0.00,WSW,248,0.0,-999.0,51,0.00,,,0.00,,2014-01-04 17:40:00,
2014-01-04 12:50:00,34.3,17.6,0.00,SSE,158,0.0,-999.0,50,0.00,,,0.00,,2014-01-04 17:50:00,
2014-01-04 13:00:00,34.7,18.0,0.00,SW,225,0.0,-999.0,50,0.00,,,0.00,,2014-01-04 18:00:00,
2014-01-04 13:10:00,35.2,17.5,0.00,South,180,0.0,-999.0,48,0.02,,,0.02,,2014-01-04 18:10:00,
2014-01-04 13:20:00,35.7,18.0,0.00,SSW,203,0.0,-999.0,48,0.02,,,0.02,,2014-01-04 18:20:00,
2014-01-04 13:30:00,35.7,18.0,0.00,SSW,203,0.0,-999.0,48,0.02,,,0.02,,2014-01-04 18:30:00,
2014-01-04 13:40:00,35.9,18.1,0.00,SSW,203,4.0,-999.0,48,0.02,,,0.02,,2014-01-04 18:40:00,
2014-01-04 13:50:00,36.3,19.0,0.00,SSW,203,0.0,-999.0,49,0.02,,,0.02,,2014-01-04 18:50:00,
2014-01-04 14:00:00,36.6,18.3,0.00,SW,225,0.0,-999.0,47,0.02,,,0.02,,2014-01-04 19:00:00,
2014-01-04 14:10:00,36.8,18.0,0.00,South,180,5.0,-999.0,46,0.02,,,0.02,,2014-01-04 19:10:00,
2014-01-04 14:20:00,37.0,17.6,0.00,SSW,203,0.0,-999.0,45,0.00,,,0.02,,2014-01-04 19:20:00,
2014-01-04 14:30:00,37.2,17.8,0.00,South,180,6.0,-999.0,45,0.00,,,0.02,,2014-01-04 19:30:00,
2014-01-04 14:40:00,37.4,18.0,0.00,SW,225,0.0,-999.0,45,0.00,,,0.02,,2014-01-04 19:40:00,
2014-01-04 14:50:00,37.7,18.3,0.00,SSW,203,0.0,-999.0,45,0.00,,,0.02,,2014-01-04 19:50:00,
2014-01-04 15:00:00,37.5,18.1,0.00,SSW,203,0.0,-999.0,45,0.00,,,0.02,,2014-01-04 20:00:00,
2014-01-04 15:10:00,37.2,17.8,0.00,SSW,203,2.0,-999.0,45,0.00,,,0.02,,2014-01-04 20:10:00,
2014-01-04 15:20:00,37.2,18.3,0.00,SSW,203,0.0,-999.0,46,0.00,,,0.02,,2014-01-04 20:20:00,
2014-01-04 15:30:00,37.2,18.3,0.00,South,180,0.0,-999.0,46,0.00,,,0.02,,2014-01-04 20:30:00,
2014-01-04 15:40:00,37.2,18.3,0.00,SSW,203,0.0,-999.0,46,0.02,,,0.04,,2014-01-04 20:40:00,
2014-01-04 15:50:00,36.6,18.3,0.00,SSW,203,0.0,-999.0,47,0.02,,,0.04,,2014-01-04 20:50:00,
2014-01-04 16:00:00,36.5,18.2,0.00,WSW,248,0.0,-999.0,47,0.02,,,0.04,,2014-01-04 21:00:00,
2014-01-04 16:10:00,36.1,17.8,0.00,SW,225,0.0,-999.0,47,0.02,,,0.04,,2014-01-04 21:10:00,
2014-01-04 16:20:00,35.4,17.7,0.00,SW,225,0.0,-999.0,48,0.02,,,0.04,,2014-01-04 21:20:00,
2014-01-04 16:30:00,34.8,17.1,0.00,SW,225,0.0,-999.0,48,0.02,,,0.04,,2014-01-04 21:30:00,
2014-01-04 16:40:00,34.8,16.6,0.00,SW,225,0.0,-999.0,47,0.00,,,0.04,,2014-01-04 21:40:00,
2014-01-04 16:50:00,34.7,16.1,0.00,SW,225,0.0,-999.0,46,0.00,,,0.04,,2014-01-04 21:50:00,
2014-01-04 17:00:00,33.9,15.3,0.00,SW,225,0.0,-999.0,46,0.00,,,0.04,,2014-01-04 22:00:00,
2014-01-04 17:10:00,33.4,14.9,0.00,SW,225,0.0,-999.0,46,0.00,,,0.04,,2014-01-04 22:10:00,
2014-01-04 17:20:00,33.0,14.5,0.00,SW,225,0.0,-999.0,46,0.00,,,0.04,,2014-01-04 22:20:00,
2014-01-04 17:25:00,32.9,14.4,0.00,SW,225,0.0,-999.0,46,0.00,,,0.04,,2014-01-04 22:25:00,
2014-01-04 17:30:00,32.7,14.7,0.00,SW,225,0.0,-999.0,47,0.00,,,0.04,,2014-01-04 22:30:00,
2014-01-04 17:40:00,32.1,14.2,0.00,SW,225,0.0,-999.0,47,0.00,,,0.04,,2014-01-04 22:40:00,
2014-01-04 17:50:00,31.8,14.4,0.00,SW,225,0.0,-999.0,48,0.00,,,0.04,,2014-01-04 22:50:00,
2014-01-04 18:00:00,31.2,14.3,0.00,SW,225,0.0,-999.0,49,0.00,,,0.04,,2014-01-04 23:00:00,
2014-01-04 18:10:00,31.1,14.2,0.00,SW,225,0.0,-999.0,49,0.00,,,0.04,,2014-01-04 23:10:00,
2014-01-04 18:20:00,30.7,14.3,0.00,SW,225,0.0,-999.0,50,0.00,,,0.04,,2014-01-04 23:20:00,
2014-01-04 18:30:00,30.5,14.1,0.00,SW,225,0.0,-999.0,50,0.00,,,0.04,,2014-01-04 23:30:00,
2014-01-04 18:40:00,30.3,13.9,0.00,SW,225,0.0,-999.0,50,0.00,,,0.04,,2014-01-04 23:40:00,
2014-01-04 18:50:00,29.8,14.3,0.00,SW,225,0.0,-999.0,52,0.00,,,0.04,,2014-01-04 23:50:00,
2014-01-04 19:00:00,28.9,14.4,0.00,SW,225,0.0,-999.0,54,0.00,,,0.04,,2014-01-05 00:00:00,
2014-01-04 19:10:00,28.5,14.4,0.00,SW,225,0.0,-999.0,55,0.00,,,0.04,,2014-01-05 00:10:00,
2014-01-04 19:20:00,28.2,14.1,0.00,SW,225,0.0,-999.0,55,0.00,,,0.04,,2014-01-05 00:20:00,
2014-01-04 19:30:00,27.6,14.8,0.00,SW,225,0.0,-999.0,58,0.00,,,0.04,,2014-01-05 00:30:00,
2014-01-04 19:40:00,27.1,14.7,0.00,SW,225,0.0,-999.0,59,0.00,,,0.04,,2014-01-05 00:40:00,
2014-01-04 19:50:00,26.7,14.3,0.00,SW,225,0.0,-999.0,59,0.00,,,0.04,,2014-01-05 00:50:00,
2014-01-04 20:00:00,26.4,14.4,0.00,SW,225,0.0,-999.0,60,0.00,,,0.04,,2014-01-05 01:00:00,
2014-01-04 20:10:00,26.4,14.8,0.00,SW,225,0.0,-999.0,61,0.00,,,0.04,,2014-01-05 01:10:00,
2014-01-04 20:20:00,26.0,14.8,0.00,SW,225,0.0,-999.0,62,0.00,,,0.04,,2014-01-05 01:20:00,
2014-01-04 20:30:00,25.8,14.6,0.00,SW,225,0.0,-999.0,62,0.00,,,0.04,,2014-01-05 01:30:00,
2014-01-04 20:40:00,26.2,14.6,0.00,SW,225,0.0,-999.0,61,0.00,,,0.04,,2014-01-05 01:40:00,
2014-01-04 20:50:00,26.4,14.4,0.00,SW,225,0.0,-999.0,60,0.00,,,0.04,,2014-01-05 01:50:00,
2014-01-04 21:00:00,26.4,14.4,0.00,SW,225,0.0,-999.0,60,0.00,,,0.04,,2014-01-05 02:00:00,
2014-01-04 21:10:00,27.1,14.3,0.00,SW,225,0.0,-999.0,58,0.00,,,0.04,,2014-01-05 02:10:00,
2014-01-04 21:20:00,26.7,14.3,0.00,SW,225,0.0,-999.0,59,0.00,,,0.04,,2014-01-05 02:20:00,
2014-01-04 21:30:00,25.8,14.2,0.00,SW,225,0.0,-999.0,61,0.00,,,0.04,,2014-01-05 02:30:00,
2014-01-04 21:40:00,24.9,14.1,0.00,SW,225,0.0,-999.0,63,0.00,,,0.04,,2014-01-05 02:40:00,
2014-01-04 21:50:00,24.6,14.2,0.00,SW,225,0.0,-999.0,64,0.00,,,0.04,,2014-01-05 02:50:00,
2014-01-04 22:00:00,24.0,14.0,0.00,SW,225,0.0,-999.0,65,0.00,,,0.04,,2014-01-05 03:00:00,
2014-01-04 22:10:00,23.5,13.8,0.00,SW,225,0.0,-999.0,66,0.00,,,0.04,,2014-01-05 03:10:00,
2014-01-04 22:20:00,23.3,14.0,0.00,SW,225,0.0,-999.0,67,0.00,,,0.04,,2014-01-05 03:20:00,
2014-01-04 22:30:00,23.5,14.2,0.00,SW,225,0.0,-999.0,67,0.00,,,0.04,,2014-01-05 03:30:00,
2014-01-04 22:40:00,23.5,14.2,0.00,SW,225,0.0,-999.0,67,0.00,,,0.04,,2014-01-05 03:40:00,
2014-01-04 22:50:00,23.3,14.0,0.00,SW,225,0.0,-999.0,67,0.00,,,0.04,,2014-01-05 03:50:00,
2014-01-04 23:00:00,23.0,14.0,0.00,SW,225,0.0,-999.0,68,0.00,,,0.04,,2014-01-05 04:00:00,
2014-01-04 23:10:00,22.8,14.2,0.00,SW,225,0.0,-999.0,69,0.00,,,0.04,,2014-01-05 04:10:00,
2014-01-04 23:20:00,22.8,14.2,0.00,SW,225,0.0,-999.0,69,0.00,,,0.04,,2014-01-05 04:20:00,
2014-01-04 23:30:00,22.6,14.3,0.00,SW,225,0.0,-999.0,70,0.00,,,0.04,,2014-01-05 04:30:00,
2014-01-04 23:40:00,22.6,14.3,0.00,SW,225,0.0,-999.0,70,0.00,,,0.04,,2014-01-05 04:40:00,
2014-01-04 23:50:00,22.4,14.1,0.00,SW,225,0.0,-999.0,70,0.00,,,0.04,,2014-01-05 04:50:00,